Terminal Aerodrome Forecast
Issued by NWS

Home | Current Version | Previous Version | Graphics & Text | Print | Product List | Glossary On
Versions: 1 2 3 4 5 6 7 8 9 10 11 12 13 14 15 16 17 18 19 20 21 22 23 24
000
FTUS43 KBIS 190522
TAFMOT
TAF
KMOT 190522Z 1906/2006 29005KT 6SM BR FEW008
     FM190700 30005KT 2SM BR BKN008
     FM191000 30005KT 1/2SM FG BKN003
     FM191300 VRB03KT 1SM BR BKN003
     FM191500 VRB03KT 4SM BR BKN010
     FM191700 VRB03KT P6SM SCT025=

USA.gov is the U.S. government's official web portal to all federal, state and local government web resources and services.